Time;durP1;ratioP1;P1;durP2;ratioP2;P2;SDS_P1;SDS_P2;PMS_P1;PMS_P2;Temp;Humidity;BMP_temperature;BMP_pressure;BME280_temperature;BME280_humidity;BME280_pressure;Samples;Min_cycle;Max_cycle;Signal;HPM_P1;HPM_P2
2022/12/20 00:00:54;;;;;;;224.40;129.50;;;;;;;-3.71;100.00;99974.34;106202;1281;59124;-86
2022/12/20 00:03:20;;;;;;;218.40;127.70;;;;;;;-3.66;100.00;99972.14;106199;1287;59019;-86
2022/12/20 00:05:47;;;;;;;211.10;128.30;;;;;;;-3.60;100.00;99977.55;106224;1281;58987;-86
2022/12/20 00:08:13;;;;;;;207.30;126.60;;;;;;;-3.55;100.00;99978.60;106241;1288;58904;-86
2022/12/20 00:10:42;;;;;;;207.80;126.70;;;;;;;-3.49;100.00;99979.00;106027;1281;58950;-86
2022/12/20 00:13:09;;;;;;;211.40;129.90;;;;;;;-3.43;100.00;99977.30;106110;1284;62682;-86
2022/12/20 00:15:35;;;;;;;210.60;135.00;;;;;;;-3.38;100.00;99972.63;106346;1281;59377;-85
2022/12/20 00:18:02;;;;;;;197.30;121.10;;;;;;;-3.33;100.00;99973.52;106323;1287;58246;-86
2022/12/20 00:20:29;;;;;;;206.00;127.40;;;;;;;-3.31;100.00;99974.75;106182;1281;64586;-86
2022/12/20 00:22:55;;;;;;;213.70;129.70;;;;;;;-3.27;100.00;99970.77;106160;1287;59126;-86
2022/12/20 00:25:21;;;;;;;201.50;125.10;;;;;;;-3.24;100.00;99968.70;106174;1287;58929;-85
2022/12/20 00:27:48;;;;;;;198.80;120.20;;;;;;;-3.21;100.00;99969.07;106203;1288;58919;-85
2022/12/20 00:30:15;;;;;;;192.70;118.70;;;;;;;-3.19;100.00;99964.73;105458;1288;1002527;-86
2022/12/20 00:32:42;;;;;;;191.00;119.30;;;;;;;-3.16;100.00;99958.48;106235;1281;58978;-85
2022/12/20 00:35:08;;;;;;;191.70;115.80;;;;;;;-3.12;100.00;99954.33;106202;1281;58929;-86
2022/12/20 00:37:35;;;;;;;185.80;116.00;;;;;;;-3.08;100.00;99953.48;106169;1285;58949;-85
2022/12/20 00:40:01;;;;;;;182.20;113.40;;;;;;;-3.04;100.00;99948.79;106164;1288;58947;-86
2022/12/20 00:42:26;;;;;;;179.60;113.60;;;;;;;-2.99;100.00;99947.08;106223;1287;59016;-85
2022/12/20 00:44:52;;;;;;;182.40;118.20;;;;;;;-2.94;100.00;99948.30;106215;1289;58896;-85
2022/12/20 00:47:18;;;;;;;185.10;115.00;;;;;;;-2.91;100.00;99952.66;106214;1287;58933;-86
2022/12/20 00:49:44;;;;;;;185.60;113.50;;;;;;;-2.87;100.00;99952.31;106201;1282;59313;-86
2022/12/20 00:52:10;;;;;;;193.40;116.70;;;;;;;-2.82;100.00;99951.98;106168;1281;59164;-85
2022/12/20 00:54:36;;;;;;;195.80;118.00;;;;;;;-2.79;100.00;99947.81;106254;1288;58822;-85
2022/12/20 00:57:01;;;;;;;183.20;113.20;;;;;;;-2.75;100.00;99949.58;105953;1290;67235;-86
2022/12/20 00:59:28;;;;;;;173.50;112.30;;;;;;;-2.71;100.00;99952.54;106164;1287;58885;-84
2022/12/20 01:01:54;;;;;;;181.70;112.10;;;;;;;-2.66;100.00;99948.71;106135;1285;59015;-85
2022/12/20 01:04:20;;;;;;;181.60;113.80;;;;;;;-2.62;100.00;99947.67;106195;1287;58805;-86
2022/12/20 01:06:46;;;;;;;176.90;112.00;;;;;;;-2.59;100.00;99946.47;106241;1281;59478;-85
2022/12/20 01:09:12;;;;;;;143.10;91.10;;;;;;;-2.54;100.00;99936.90;106195;1286;58994;-86
2022/12/20 01:11:38;;;;;;;127.10;82.40;;;;;;;-2.50;100.00;99926.47;106210;1287;58802;-85
2022/12/20 01:14:13;;;;;;;137.00;84.80;;;;;;;-2.44;100.00;99928.58;106187;1287;59106;-85
2022/12/20 01:16:41;;;;;;;111.30;73.70;;;;;;;-2.37;100.00;99916.04;106171;1287;61288;-85
2022/12/20 01:19:10;;;;;;;112.20;73.30;;;;;;;-2.31;100.00;99911.52;106213;1281;65963;-86
2022/12/20 01:21:43;;;;;;;115.00;74.00;;;;;;;-2.25;100.00;99900.89;106200;1281;59912;-83
2022/12/20 01:24:14;;;;;;;113.20;72.40;;;;;;;-2.19;100.00;99894.29;105088;1284;1002873;-85
2022/12/20 01:26:40;;;;;;;99.10;60.60;;;;;;;-2.14;100.00;99889.58;105900;1290;58986;-84
2022/12/20 01:29:08;;;;;;;96.80;59.50;;;;;;;-2.07;100.00;99894.61;106213;1288;59874;-85
2022/12/20 01:31:34;;;;;;;112.20;67.30;;;;;;;-1.98;100.00;99911.48;106196;1281;66186;-85
2022/12/20 01:34:00;;;;;;;115.60;72.60;;;;;;;-1.89;100.00;99939.69;105996;1289;58883;-85
2022/12/20 01:36:32;;;;;;;110.20;74.80;;;;;;;-1.85;100.00;99941.95;106180;1285;58945;-86
2022/12/20 01:39:12;;;;;;;114.20;77.70;;;;;;;-1.83;100.00;99931.66;105998;1291;59081;-86
2022/12/20 01:41:39;;;;;;;125.20;82.80;;;;;;;-1.82;100.00;99932.36;106217;1287;60236;-83
2022/12/20 01:44:26;;;;;;;128.00;80.40;;;;;;;-1.80;100.00;99936.52;106209;1288;64687;-83
2022/12/20 01:46:53;;;;;;;112.50;75.10;;;;;;;-1.79;100.00;99932.70;105986;1290;60139;-84
2022/12/20 01:49:29;;;;;;;106.30;68.10;;;;;;;-1.78;100.00;99930.09;106202;1288;62577;-84
2022/12/20 01:52:01;;;;;;;103.90;65.20;;;;;;;-1.76;100.00;99913.53;106029;1290;60720;-82
2022/12/20 01:54:33;;;;;;;107.00;65.00;;;;;;;-1.76;100.00;99899.77;106025;1290;58835;-84
2022/12/20 01:57:14;;;;;;;102.80;64.80;;;;;;;-1.74;100.00;99900.28;106220;1281;74503;-85
2022/12/20 01:59:42;;;;;;;98.40;61.60;;;;;;;-1.74;100.00;99901.67;106213;1279;69818;-85
2022/12/20 02:02:11;;;;;;;104.20;65.00;;;;;;;-1.74;100.00;99904.81;106185;1289;62846;-85
2022/12/20 02:04:37;;;;;;;96.50;63.60;;;;;;;-1.75;100.00;99895.77;106193;1281;60764;-84
2022/12/20 02:07:06;;;;;;;105.00;65.90;;;;;;;-1.76;100.00;99897.51;106215;1287;58852;-86
2022/12/20 02:09:34;;;;;;;103.40;65.50;;;;;;;-1.77;100.00;99896.46;106197;1289;75683;-85
2022/12/20 02:12:10;;;;;;;94.20;61.10;;;;;;;-1.77;100.00;99889.66;106184;1288;61262;-85
2022/12/20 02:15:07;;;;;;;95.90;62.30;;;;;;;-1.77;100.00;99890.71;105953;1294;65121;-85
2022/12/20 02:17:59;;;;;;;104.40;67.20;;;;;;;-1.78;100.00;99891.06;106154;1294;58961;-84
2022/12/20 02:20:59;;;;;;;102.40;64.00;;;;;;;-1.79;100.00;99884.09;105870;1292;58763;-84
2022/12/20 02:23:28;;;;;;;;;;;;;;;-1.81;100.00;99867.20;106190;1281;76198;-84
2022/12/20 02:26:16;;;;;;;91.10;58.50;;;;;;;-1.84;100.00;99853.81;106196;1287;60109;-85
2022/12/20 02:29:04;;;;;;;92.00;56.30;;;;;;;-1.84;100.00;99854.69;106193;1291;64097;-86
2022/12/20 02:31:41;;;;;;;88.00;54.80;;;;;;;-1.85;100.00;99858.52;106164;1289;58893;-85
2022/12/20 02:34:09;;;;;;;91.10;56.00;;;;;;;-1.85;100.00;99872.96;106154;1281;58892;-84
2022/12/20 02:36:35;;;;;;;99.10;63.10;;;;;;;-1.84;100.00;99886.39;106184;1287;75750;-86
2022/12/20 02:39:01;;;;;;;98.50;59.10;;;;;;;-1.84;100.00;99890.05;106183;1287;58875;-84
2022/12/20 02:41:42;;;;;;;87.80;57.10;;;;;;;-1.82;100.00;99890.73;105993;1284;59319;-86
2022/12/20 02:47:01;;;;;;;85.40;57.00;;;;;;;-1.76;100.00;99888.09;106163;1289;60602;-85
2022/12/20 02:49:31;;;;;;;87.70;56.30;;;;;;;-1.73;100.00;99890.02;106163;1286;73683;-85
2022/12/20 02:51:58;;;;;;;;;;;;;;;-1.71;100.00;99897.32;106210;1277;68967;-84
2022/12/20 02:54:25;;;;;;;89.40;55.00;;;;;;;-1.69;100.00;99893.48;106176;1282;65118;-85
2022/12/20 02:56:59;;;;;;;87.20;55.00;;;;;;;-1.66;100.00;99884.59;106219;1289;60136;-85
2022/12/20 02:59:33;;;;;;;85.70;55.40;;;;;;;-1.64;100.00;99870.47;106177;1275;58986;-85
2022/12/20 03:01:59;;;;;;;85.20;53.90;;;;;;;-1.62;100.00;99864.37;106185;1288;67251;-86
2022/12/20 03:04:29;;;;;;;81.80;52.50;;;;;;;-1.61;100.00;99861.56;106194;1291;59713;-86
2022/12/20 03:07:08;;;;;;;77.50;52.10;;;;;;;-1.59;100.00;99866.62;106190;1281;72889;-85
2022/12/20 03:09:38;;;;;;;80.00;46.60;;;;;;;-1.57;100.00;99873.05;105999;1280;58786;-84
2022/12/20 03:12:05;;;;;;;72.30;45.00;;;;;;;-1.54;100.00;99870.95;106192;1281;60147;-84
2022/12/20 03:14:31;;;;;;;69.80;45.50;;;;;;;-1.52;100.00;99876.18;106201;1289;75749;-84
2022/12/20 03:16:57;;;;;;;78.30;51.60;;;;;;;-1.51;100.00;99876.52;105450;1281;1002126;-84
2022/12/20 03:19:24;;;;;;;80.70;50.60;;;;;;;-1.52;100.00;99868.34;106204;1288;58901;-85
2022/12/20 03:21:50;;;;;;;92.30;56.50;;;;;;;-1.54;100.00;99872.52;106199;1288;58914;-85
2022/12/20 03:24:16;;;;;;;68.70;46.30;;;;;;;-1.56;100.00;99882.99;106187;1280;58885;-85
2022/12/20 03:26:43;;;;;;;78.30;49.60;;;;;;;-1.58;100.00;99879.16;106291;1281;58290;-84
2022/12/20 03:29:09;;;;;;;80.30;51.90;;;;;;;-1.62;100.00;99863.31;105985;1287;58967;-83
2022/12/20 03:31:35;;;;;;;77.00;49.50;;;;;;;-1.65;100.00;99855.49;106227;1288;58866;-84
2022/12/20 03:34:02;;;;;;;79.10;51.40;;;;;;;-1.71;100.00;99854.11;105477;1284;1002248;-84
2022/12/20 03:36:29;;;;;;;89.00;56.10;;;;;;;-1.80;100.00;99853.98;106214;1287;58757;-85
2022/12/20 03:38:55;;;;;;;73.40;50.90;;;;;;;-1.85;100.00;99843.89;105860;1290;59220;-85
2022/12/20 03:41:22;;;;;;;80.70;50.80;;;;;;;-1.89;100.00;99842.85;105843;1285;59232;-86
2022/12/20 03:43:48;;;;;;;75.90;51.00;;;;;;;-1.91;100.00;99846.69;105845;1291;58823;-85
2022/12/20 03:46:14;;;;;;;71.00;47.80;;;;;;;-1.93;100.00;99845.13;105837;1294;59150;-85
2022/12/20 03:48:40;;;;;;;73.80;48.40;;;;;;;-1.99;100.00;99843.05;105893;1290;59023;-85
2022/12/20 03:51:06;;;;;;;79.00;51.30;;;;;;;-2.05;100.00;99848.64;105688;1298;59114;-84
2022/12/20 03:53:32;;;;;;;78.50;51.80;;;;;;;-2.07;100.00;99848.29;105862;1294;59029;-85
2022/12/20 03:55:59;;;;;;;74.40;49.50;;;;;;;-2.09;100.00;99853.70;105135;1295;1002593;-84
2022/12/20 03:58:25;;;;;;;72.50;47.50;;;;;;;-2.14;100.00;99848.48;105862;1290;59375;-85
2022/12/20 04:00:51;;;;;;;75.20;46.20;;;;;;;-2.18;100.00;99842.73;105813;1287;58714;-86
2022/12/20 04:03:17;;;;;;;74.40;47.10;;;;;;;-2.21;100.00;99838.23;105860;1295;66447;-84
2022/12/20 04:05:43;;;;;;;76.60;49.10;;;;;;;-2.25;100.00;99844.15;105843;1287;59085;-85
2022/12/20 04:08:09;;;;;;;76.90;52.10;;;;;;;-2.27;100.00;99848.33;105791;1287;59239;-85
2022/12/20 04:11:14;;;;;;;84.80;56.60;;;;;;;-2.26;100.00;99858.77;106110;1291;58990;-85
2022/12/20 04:13:22;;;;;;;80.40;50.80;;;;;;;-2.23;100.00;99857.20;106206;1288;67180;-86
2022/12/20 04:15:49;;;;;;;78.30;51.00;;;;;;;-2.21;100.00;99852.51;106227;1289;59632;-84
2022/12/20 04:18:14;;;;;;;77.20;50.60;;;;;;;-2.20;100.00;99852.69;106170;1288;59114;-85
2022/12/20 04:20:40;;;;;;;78.10;50.70;;;;;;;-2.21;100.00;99854.94;106184;1275;59263;-85
2022/12/20 04:23:06;;;;;;;79.20;52.10;;;;;;;-2.24;100.00;99858.60;106229;1287;58803;-84
2022/12/20 04:25:32;;;;;;;84.40;55.60;;;;;;;-2.29;100.00;99862.26;106217;1287;59110;-85
2022/12/20 04:27:58;;;;;;;83.00;54.70;;;;;;;-2.33;100.00;99859.13;106194;1288;58965;-85
2022/12/20 04:30:24;;;;;;;79.10;54.10;;;;;;;-2.35;100.00;99858.27;106206;1282;58900;-84
2022/12/20 04:32:53;;;;;;;89.90;57.90;;;;;;;-2.38;100.00;99863.84;106222;1276;59073;-85
2022/12/20 04:35:19;;;;;;;89.20;55.80;;;;;;;-2.40;100.00;99855.30;106194;1288;58906;-86
2022/12/20 04:37:46;;;;;;;80.60;55.00;;;;;;;-2.42;100.00;99854.44;106201;1282;58829;-85
2022/12/20 04:40:12;;;;;;;82.50;56.40;;;;;;;-2.45;100.00;99848.70;106189;1281;58941;-85
2022/12/20 04:42:38;;;;;;;87.40;57.50;;;;;;;-2.46;100.00;99847.48;106211;1281;58930;-85
2022/12/20 04:45:04;;;;;;;90.70;60.90;;;;;;;-2.49;100.00;99850.96;106228;1282;58905;-85
2022/12/20 04:47:30;;;;;;;93.80;60.20;;;;;;;-2.53;100.00;99857.05;105842;1294;59150;-86
2022/12/20 04:49:56;;;;;;;95.30;63.50;;;;;;;-2.58;100.00;99855.48;105453;1288;1002742;-86
2022/12/20 04:55:08;;;;;;;87.30;58.70;;;;;;;-2.61;100.00;99860.54;106263;1281;59267;-85
2022/12/20 04:57:33;;;;;;;92.20;62.00;;;;;;;-2.63;100.00;99860.35;106216;1287;58976;-85
2022/12/20 04:59:59;;;;;;;76.30;51.80;;;;;;;-2.66;100.00;99850.95;106166;1287;58883;-84
2022/12/20 05:02:25;;;;;;;83.50;56.10;;;;;;;-2.68;100.00;99849.74;105931;1289;58881;-84
2022/12/20 05:04:51;;;;;;;81.60;56.60;;;;;;;-2.69;100.00;99850.09;106165;1273;58999;-85
2022/12/20 05:07:18;;;;;;;88.00;57.40;;;;;;;-2.74;100.00;99844.88;106200;1281;59186;-86
2022/12/20 05:09:43;;;;;;;85.80;56.50;;;;;;;-2.78;100.00;99847.13;106207;1265;58950;-84
2022/12/20 05:12:09;;;;;;;85.90;55.60;;;;;;;-2.81;100.00;99856.35;106209;1283;59045;-85
2022/12/20 05:14:36;;;;;;;80.90;56.00;;;;;;;-2.85;100.00;99859.29;106227;1288;58974;-85
2022/12/20 05:17:02;;;;;;;81.50;57.30;;;;;;;-2.86;100.00;99857.73;106206;1282;59051;-86
2022/12/20 05:19:28;;;;;;;80.20;56.00;;;;;;;-2.89;100.00;99852.68;106204;1287;59331;-86
2022/12/20 05:27:23;;;;;;;83.40;58.30;;;;;;;-2.92;100.00;99846.95;106081;1285;63342;-86
2022/12/20 05:29:49;;;;;;;78.80;54.90;;;;;;;-2.91;100.00;99841.38;106110;1281;58817;-86
2022/12/20 05:32:15;;;;;;;79.30;52.30;;;;;;;-2.91;100.00;99844.85;106093;1282;58841;-84
2022/12/20 05:34:42;;;;;;;74.80;51.40;;;;;;;-2.92;100.00;99844.34;106076;1287;58867;-86
2022/12/20 05:37:08;;;;;;;92.90;65.70;;;;;;;-2.93;100.00;99841.02;106074;1276;59146;-84
2022/12/20 05:39:34;;;;;;;91.10;63.80;;;;;;;-2.92;100.00;99845.04;106070;1281;58887;-85
2022/12/20 05:41:59;;;;;;;87.00;60.50;;;;;;;-2.91;100.00;99846.41;105914;1288;195932;-86
2022/12/20 05:44:25;;;;;;;90.00;60.40;;;;;;;-2.92;100.00;99846.08;106082;1282;58920;-86
2022/12/20 05:46:51;;;;;;;77.00;55.50;;;;;;;-2.92;100.00;99848.34;106095;1289;58950;-86
2022/12/20 05:49:18;;;;;;;80.80;53.80;;;;;;;-2.95;100.00;99849.20;106074;1285;58947;-85
2022/12/20 05:51:44;;;;;;;92.90;62.00;;;;;;;-2.97;100.00;99847.80;105922;1294;58961;-84
2022/12/20 05:54:10;;;;;;;85.40;56.90;;;;;;;-2.97;100.00;99845.20;106095;1283;58834;-86
2022/12/20 05:56:36;;;;;;;94.50;63.20;;;;;;;-2.98;100.00;99845.37;106066;1275;58943;-86
2022/12/20 05:59:03;;;;;;;82.20;57.40;;;;;;;-3.00;100.00;99840.33;106159;1281;58934;-86
2022/12/20 06:01:29;;;;;;;85.40;54.80;;;;;;;-3.02;100.00;99830.41;105172;1271;1002725;-86
2022/12/20 06:03:55;;;;;;;79.40;54.10;;;;;;;-3.02;100.00;99825.89;106108;1289;58963;-87
2022/12/20 06:06:21;;;;;;;87.00;53.60;;;;;;;-3.08;100.00;99819.11;106084;1283;59098;-86
2022/12/20 06:08:47;;;;;;;77.80;50.70;;;;;;;-3.15;100.00;99821.86;106089;1288;59822;-86
2022/12/20 06:11:13;;;;;;;77.40;52.90;;;;;;;-3.18;100.00;99817.53;106098;1272;58969;-87
2022/12/20 06:13:38;;;;;;;81.70;53.70;;;;;;;-3.18;100.00;99816.66;106090;1282;58961;-85
2022/12/20 06:16:06;;;;;;;80.70;51.30;;;;;;;-3.17;100.00;99809.70;106087;1289;58929;-85
2022/12/20 06:18:32;;;;;;;89.60;57.70;;;;;;;-3.18;100.00;99808.49;106103;1281;58979;-85
2022/12/20 06:20:58;;;;;;;86.00;58.40;;;;;;;-3.19;100.00;99809.52;106098;1283;59026;-86
2022/12/20 06:23:24;;;;;;;89.80;58.60;;;;;;;-3.22;100.00;99813.69;105964;1290;58962;-86
2022/12/20 06:25:51;;;;;;;90.90;63.20;;;;;;;-3.28;100.00;99811.42;105374;1272;1002245;-86
2022/12/20 06:28:20;;;;;;;93.10;62.20;;;;;;;-3.33;100.00;99818.02;106118;1281;58943;-86
2022/12/20 06:30:55;;;;;;;98.20;67.20;;;;;;;-3.37;100.00;99817.14;105738;1287;65864;-86
2022/12/20 06:33:21;;;;;;;93.70;61.80;;;;;;;-3.42;100.00;99815.73;106067;1281;68521;-86
2022/12/20 06:35:49;;;;;;;91.00;60.00;;;;;;;-3.44;100.00;99818.68;106109;1282;58855;-87
2022/12/20 06:38:15;;;;;;;89.50;60.50;;;;;;;-3.49;100.00;99821.80;106132;1284;58703;-85
2022/12/20 06:40:41;;;;;;;94.60;65.00;;;;;;;-3.56;100.00;99823.34;106442;1282;59388;-85
2022/12/20 06:43:07;;;;;;;93.50;64.30;;;;;;;-3.62;100.00;99830.79;106156;1274;58933;-86
2022/12/20 06:45:33;;;;;;;101.20;67.70;;;;;;;-3.64;100.00;99825.75;104634;1289;1002302;-85
2022/12/20 06:47:59;;;;;;;91.70;59.30;;;;;;;-3.67;100.00;99823.65;106114;1295;59209;-87
2022/12/20 06:50:25;;;;;;;92.40;63.50;;;;;;;-3.70;100.00;99824.67;106097;1281;58868;-86
2022/12/20 06:52:51;;;;;;;94.30;61.00;;;;;;;-3.74;100.00;99830.55;106093;1269;58882;-86
2022/12/20 06:55:17;;;;;;;92.50;61.30;;;;;;;-3.76;100.00;99831.23;106095;1281;59017;-86
2022/12/20 06:57:43;;;;;;;93.10;61.10;;;;;;;-3.79;100.00;99828.98;106119;1268;66781;-86
2022/12/20 07:00:11;;;;;;;94.70;61.60;;;;;;;-3.79;100.00;99817.70;105373;1288;1002271;-87
2022/12/20 07:02:37;;;;;;;92.80;61.30;;;;;;;-3.79;100.00;99814.56;105872;1291;60202;-86
2022/12/20 07:05:04;;;;;;;91.70;61.70;;;;;;;-3.80;100.00;99822.02;105349;1281;1002315;-87
2022/12/20 07:07:30;;;;;;;89.00;61.30;;;;;;;-3.80;100.00;99819.42;105850;1289;59030;-86
2022/12/20 07:09:56;;;;;;;91.80;61.50;;;;;;;-3.81;100.00;99825.34;106123;1288;58911;-86
2022/12/20 07:12:23;;;;;;;93.60;60.40;;;;;;;-3.79;100.00;99829.33;106084;1273;59392;-85
2022/12/20 07:14:50;;;;;;;92.70;63.60;;;;;;;-3.69;100.00;99830.42;106096;1281;58780;-85
2022/12/20 07:17:16;;;;;;;104.30;72.00;;;;;;;-3.60;100.00;99836.52;106098;1288;59679;-85
2022/12/20 07:19:42;;;;;;;103.70;69.70;;;;;;;-3.52;100.00;99827.69;106109;1282;59194;-85
2022/12/20 07:22:08;;;;;;;92.30;64.60;;;;;;;-3.43;100.00;99820.24;106100;1288;58887;-86
2022/12/20 07:24:34;;;;;;;101.20;63.40;;;;;;;-3.35;100.00;99818.02;106126;1281;58821;-87
2022/12/20 07:27:01;;;;;;;92.70;63.80;;;;;;;-3.28;100.00;99820.81;106102;1276;58827;-86
2022/12/20 07:29:27;;;;;;;97.00;65.20;;;;;;;-3.20;100.00;99819.61;105070;1298;1002759;-85
2022/12/20 07:31:53;;;;;;;94.60;62.90;;;;;;;-3.11;100.00;99817.02;106069;1288;59344;-86
2022/12/20 07:34:20;;;;;;;91.60;63.60;;;;;;;-3.05;100.00;99821.55;106064;1272;60456;-85
2022/12/20 07:36:46;;;;;;;87.00;59.00;;;;;;;-3.02;100.00;99818.25;105932;1281;59009;-85
2022/12/20 07:39:12;;;;;;;88.30;59.40;;;;;;;-2.98;100.00;99825.03;106110;1284;58954;-86
2022/12/20 07:41:38;;;;;;;82.20;54.00;;;;;;;-2.90;100.00;99827.46;106119;1276;58902;-86
2022/12/20 07:44:05;;;;;;;90.20;60.00;;;;;;;-2.83;100.00;99824.51;106063;1279;59250;-86
2022/12/20 07:46:31;;;;;;;82.70;52.60;;;;;;;-2.77;100.00;99830.95;106087;1281;58835;-86
2022/12/20 07:48:57;;;;;;;90.00;61.30;;;;;;;-2.63;100.00;99827.30;105369;1289;1002505;-88
2022/12/20 07:51:35;;;;;;;88.20;61.80;;;;;;;-2.49;100.00;99818.60;106087;1288;72769;-86
2022/12/20 07:54:15;;;;;;;93.40;63.20;;;;;;;-2.37;100.00;99807.97;106103;1288;60125;-86
2022/12/20 07:56:46;;;;;;;86.40;58.40;;;;;;;-2.33;100.00;99804.13;105877;1288;62857;-86
2022/12/20 07:59:15;;;;;;;92.70;59.20;;;;;;;-2.27;100.00;99807.09;106095;1288;58872;-85
2022/12/20 08:01:43;;;;;;;89.00;59.50;;;;;;;-2.15;100.00;99816.46;106097;1288;58929;-86
2022/12/20 08:04:13;;;;;;;93.80;60.40;;;;;;;-2.02;100.00;99819.55;106102;1288;64986;-87
2022/12/20 08:06:41;;;;;;;95.10;62.20;;;;;;;-1.86;100.00;99816.55;105937;1291;60051;-85
2022/12/20 08:09:12;;;;;;;86.20;61.40;;;;;;;-1.69;100.00;99809.86;106087;1288;72020;-85
2022/12/20 08:11:42;;;;;;;95.70;62.70;;;;;;;-1.60;100.00;99811.21;106080;1291;59032;-87
2022/12/20 08:14:08;;;;;;;84.10;59.70;;;;;;;-1.55;100.00;99807.19;106082;1288;58894;-86
2022/12/20 08:16:34;;;;;;;87.20;58.90;;;;;;;-1.51;100.00;99810.48;106103;1288;58918;-86
2022/12/20 08:19:00;;;;;;;88.90;58.70;;;;;;;-1.46;100.00;99810.10;106113;1288;58989;-87
2022/12/20 08:21:26;;;;;;;91.60;59.90;;;;;;;-1.36;100.00;99815.11;106072;1282;59239;-87
2022/12/20 08:23:53;;;;;;;109.50;72.50;;;;;;;-1.24;100.00;99813.11;106097;1290;59245;-87
2022/12/20 08:26:19;;;;;;;143.00;94.00;;;;;;;-1.16;100.00;99814.45;105879;1275;59085;-87
2022/12/20 08:28:46;;;;;;;136.10;90.90;;;;;;;-1.05;100.00;99807.94;106082;1288;58861;-86
2022/12/20 08:31:12;;;;;;;124.90;85.10;;;;;;;-0.92;100.00;99805.23;106118;1284;58900;-86
2022/12/20 08:33:39;;;;;;;109.30;77.40;;;;;;;-0.78;100.00;99802.85;106098;1287;58867;-86
2022/12/20 08:36:08;;;;;;;98.80;68.30;;;;;;;-0.67;100.00;99797.17;105936;1275;58901;-86
2022/12/20 08:38:35;;;;;;;117.40;76.70;;;;;;;-0.57;100.00;99800.76;106131;1280;58845;-86
2022/12/20 08:41:06;;;;;;;112.60;78.00;;;;;;;-0.51;100.00;99802.10;106178;1282;59075;-86
2022/12/20 08:43:33;;;;;;;116.80;81.40;;;;;;;-0.49;100.00;99803.13;106264;1288;59904;-86
2022/12/20 08:46:01;;;;;;;116.50;79.30;;;;;;;-0.44;100.00;99801.52;106239;1289;58934;-85
2022/12/20 08:48:27;;;;;;;109.10;76.80;;;;;;;-0.36;100.00;99798.30;106256;1285;58967;-85
2022/12/20 08:50:57;;;;;;;107.40;74.00;;;;;;;-0.29;100.00;99796.83;106321;1281;58805;-86
2022/12/20 08:53:23;;;;;;;106.80;73.70;;;;;;;-0.23;100.00;99788.90;106214;1288;67072;-87
2022/12/20 08:55:50;;;;;;;92.60;67.70;;;;;;;-0.18;100.00;99784.14;106270;1275;58889;-85
2022/12/20 08:58:16;;;;;;;89.70;61.90;;;;;;;-0.12;100.00;99782.34;106219;1281;58750;-86
2022/12/20 09:00:43;;;;;;;92.50;63.50;;;;;;;-0.04;100.00;99786.61;106214;1280;58975;-85
2022/12/20 09:03:10;;;;;;;100.90;69.00;;;;;;;0.05;100.00;99787.04;106280;1288;58925;-86
2022/12/20 09:05:43;;;;;;;94.90;67.40;;;;;;;0.13;100.00;99789.05;106249;1280;66012;-85
2022/12/20 09:08:09;;;;;;;89.70;62.40;;;;;;;0.23;100.00;99784.91;106238;1281;68209;-85
2022/12/20 09:10:35;;;;;;;95.20;66.10;;;;;;;0.31;100.00;99785.15;106246;1281;58969;-85
2022/12/20 09:13:01;;;;;;;87.10;63.80;;;;;;;0.39;100.00;99789.92;106059;1291;59037;-84
2022/12/20 09:15:28;;;;;;;89.70;61.40;;;;;;;0.46;100.00;99790.90;106230;1275;58715;-83
2022/12/20 09:17:54;;;;;;;91.30;61.10;;;;;;;0.54;100.00;99782.05;106220;1281;58967;-86
2022/12/20 09:20:20;;;;;;;95.40;64.20;;;;;;;0.57;100.00;99773.77;106220;1281;58771;-86
2022/12/20 09:22:47;;;;;;;93.60;60.10;;;;;;;0.60;100.00;99769.38;106239;1281;58916;-86
2022/12/20 09:25:13;;;;;;;91.10;61.40;;;;;;;0.62;100.00;99786.31;106251;1274;59078;-85
2022/12/20 09:27:40;;;;;;;89.50;59.70;;;;;;;0.73;100.00;99791.57;106266;1281;58713;-85
2022/12/20 09:30:27;;;;;;;88.30;61.60;;;;;;;0.85;100.00;99787.05;106195;1287;58971;-86
2022/12/20 09:32:53;;;;;;;92.20;62.90;;;;;;;1.01;100.00;99777.00;105918;1285;59765;-84
2022/12/20 09:35:19;;;;;;;94.90;63.50;;;;;;;1.15;100.00;99769.60;105921;1291;59132;-84
2022/12/20 09:37:45;;;;;;;98.30;63.90;;;;;;;1.32;100.00;99766.35;105930;1292;58955;-85
2022/12/20 09:40:19;;;;;;;90.90;63.70;;;;;;;1.48;100.00;99770.61;105214;1287;1003429;-84
2022/12/20 09:42:48;;;;;;;87.60;59.80;;;;;;;1.61;100.00;99775.64;105912;1284;64690;-85
2022/12/20 09:45:27;;;;;;;90.90;62.10;;;;;;;1.71;100.00;99775.45;105848;1293;59149;-86
2022/12/20 09:47:53;;;;;;;81.30;59.00;;;;;;;1.82;100.00;99761.42;105901;1287;63863;-84
2022/12/20 09:50:23;;;;;;;88.80;58.90;;;;;;;1.92;100.00;99756.13;106040;1283;58854;-82
2022/12/20 09:53:05;;;;;;;77.60;54.90;;;;;;;2.00;100.00;99754.59;106046;1284;58910;-84
2022/12/20 09:55:42;;;;;;;77.00;53.40;;;;;;;2.04;100.00;99755.55;105919;1295;66048;-87
2022/12/20 09:58:44;;;;;;;78.00;53.00;;;;;;;2.05;100.00;99754.13;105637;1296;60118;-85
2022/12/20 10:01:16;;;;;;;90.10;63.10;;;;;;;2.08;100.00;99745.30;104729;1306;72744;-81
2022/12/20 10:03:42;;;;;;;115.00;75.20;;;;;;;2.12;100.00;99737.51;104692;1302;58993;-83
2022/12/20 10:06:21;;;;;;;100.20;66.90;;;;;;;2.14;100.00;99725.73;105000;1303;59119;-82
2022/12/20 10:08:56;;;;;;;93.60;63.10;;;;;;;2.15;100.00;99719.92;104978;1303;64846;-84
2022/12/20 10:12:00;;;;;;;92.40;60.80;;;;;;;2.15;100.00;99713.79;105004;1302;59257;-83
2022/12/20 10:14:43;;;;;;;78.50;55.50;;;;;;;2.20;100.00;99697.73;104978;1295;64073;-84
2022/12/20 10:17:16;;;;;;;94.30;66.80;;;;;;;2.30;100.00;99693.31;105005;1303;59077;-80
2022/12/20 10:20:00;;;;;;;113.10;75.40;;;;;;;2.40;100.00;99689.22;104929;1306;59146;-82
2022/12/20 10:22:37;;;;;;;110.90;74.50;;;;;;;2.51;100.00;99687.94;104981;1302;74750;-83
2022/12/20 10:25:13;;;;;;;77.30;55.00;;;;;;;2.65;100.00;99693.20;104895;1304;59835;-83
2022/12/20 10:27:43;;;;;;;76.90;50.20;;;;;;;2.75;100.00;99693.48;104976;1302;64079;-82
2022/12/20 10:30:18;;;;;;;71.00;49.40;;;;;;;2.84;100.00;99694.86;105309;1298;58959;-81
2022/12/20 10:32:48;;;;;;;71.20;48.50;;;;;;;2.95;100.00;99695.98;105381;1297;58980;-82
2022/12/20 10:35:13;;;;;;;70.70;46.20;;;;;;;3.04;100.00;99701.38;105605;1291;65967;-82
2022/12/20 10:37:57;;;;;;;78.00;50.20;;;;;;;3.21;100.00;99696.93;106068;1292;58928;-82
2022/12/20 10:40:57;;;;;;;90.20;57.10;;;;;;;3.40;100.00;99687.30;106064;1288;72674;-82
2022/12/20 10:43:24;;;;;;;74.10;47.00;;;;;;;3.52;100.00;99679.09;105594;1294;58875;-82
2022/12/20 10:46:05;;;;;;;69.80;47.50;;;;;;;3.62;100.00;99675.12;105607;1288;58897;-81
2022/12/20 10:48:37;;;;;;;71.00;48.00;;;;;;;3.67;100.00;99673.56;105565;1290;64552;-81
2022/12/20 10:51:12;;;;;;;68.40;45.30;;;;;;;3.72;100.00;99667.27;105617;1294;59016;-81
2022/12/20 10:53:53;;;;;;;67.90;43.60;;;;;;;3.73;100.00;99673.05;105600;1294;64012;-79
2022/12/20 10:56:27;;;;;;;74.00;47.40;;;;;;;3.60;100.00;99670.08;105602;1293;58992;-81
2022/12/20 10:59:16;;;;;;;94.60;55.40;;;;;;;3.42;100.00;99668.27;105634;1291;59262;-82
2022/12/20 11:01:47;;;;;;;81.90;51.70;;;;;;;3.31;100.00;99660.65;105633;1290;65289;-81
2022/12/20 11:04:26;;;;;;;75.50;47.90;;;;;;;3.31;100.00;99651.00;105615;1294;60006;-81
2022/12/20 11:06:52;;;;;;;75.30;46.90;;;;;;;3.34;100.00;99644.42;105527;1297;62889;-81
2022/12/20 11:09:29;;;;;;;68.50;44.30;;;;;;;3.40;100.00;99638.14;105633;1289;59083;-81
2022/12/20 11:12:03;;;;;;;65.30;42.40;;;;;;;3.48;100.00;99636.48;105613;1294;58972;-79
2022/12/20 11:14:32;;;;;;;61.70;40.90;;;;;;;3.59;100.00;99631.11;105634;1294;66456;-81
2022/12/20 11:17:03;;;;;;;60.80;40.80;;;;;;;3.69;100.00;99620.08;105464;1297;60353;-80
2022/12/20 11:19:42;;;;;;;62.80;41.60;;;;;;;3.82;100.00;99612.51;105601;1294;63923;-80